EZS22C LSGG-LFMN
Flight info
| Callsign | EZS22C |
|---|---|
| Flight time | 0h 50m |
| Altitude | 23000 |
| Route | MEDAM DCT VEVAR |
| Aircraft | A320/M-SDE2E3FGHIJ1RWXYZ/LB1 |
Departure
| Time | 2026-05-05 18:42 |
|---|---|
| Airport | Geneva International Airport (LSGG) |
Arrival
| Time | 2026-05-05 19:32 |
|---|---|
| Airport | Nice-Côte d'Azur Airport (LFMN) |
| Time | Latitude | Longitude | Altitude | Speed | Heading |
|---|---|---|---|---|---|
| 2026-05-05 18:11 | 46.23149 | 6.10747 | 1394 ft | 0 kts | 135° |
| 2026-05-05 18:33 | 46.23158 | 6.10734 | 1402 ft | 4 kts | 129° |
| 2026-05-05 18:33 | 46.23171 | 6.10703 | 1393 ft | 4 kts | 101° |
| 2026-05-05 18:33 | 46.23169 | 6.10667 | 1394 ft | 4 kts | 57° |
| 2026-05-05 18:33 | 46.23164 | 6.10656 | 1394 ft | 0 kts | 45° |
| 2026-05-05 18:36 | 46.23170 | 6.10664 | 1394 ft | 3 kts | 46° |
| 2026-05-05 18:37 | 46.23200 | 6.10711 | 1396 ft | 10 kts | 47° |
| 2026-05-05 18:37 | 46.23272 | 6.10781 | 1388 ft | 15 kts | 19° |
| 2026-05-05 18:37 | 46.23371 | 6.10869 | 1385 ft | 19 kts | 45° |
| 2026-05-05 18:37 | 46.23472 | 6.11017 | 1385 ft | 22 kts | 45° |
| 2026-05-05 18:38 | 46.23555 | 6.11139 | 1384 ft | 11 kts | 46° |
| 2026-05-05 18:38 | 46.23625 | 6.11126 | 1384 ft | 13 kts | 318° |
| 2026-05-05 18:38 | 46.23686 | 6.11068 | 1380 ft | 10 kts | 6° |
| 2026-05-05 18:38 | 46.23745 | 6.11142 | 1380 ft | 14 kts | 45° |
| 2026-05-05 18:39 | 46.23833 | 6.11270 | 1379 ft | 21 kts | 45° |
| 2026-05-05 18:39 | 46.23944 | 6.11434 | 1377 ft | 24 kts | 45° |
| 2026-05-05 18:39 | 46.24069 | 6.11617 | 1374 ft | 27 kts | 45° |
| 2026-05-05 18:39 | 46.24205 | 6.11818 | 1372 ft | 29 kts | 45° |
| 2026-05-05 18:40 | 46.24346 | 6.12025 | 1372 ft | 24 kts | 46° |
| 2026-05-05 18:40 | 46.24470 | 6.12207 | 1370 ft | 26 kts | 45° |
| 2026-05-05 18:40 | 46.24603 | 6.12402 | 1369 ft | 28 kts | 45° |
| 2026-05-05 18:40 | 46.24718 | 6.12570 | 1369 ft | 22 kts | 45° |
| 2026-05-05 18:41 | 46.24834 | 6.12685 | 1369 ft | 21 kts | 18° |
| 2026-05-05 18:41 | 46.24947 | 6.12731 | 1369 ft | 13 kts | 5° |
| 2026-05-05 18:41 | 46.24996 | 6.12654 | 1369 ft | 10 kts | 256° |
| 2026-05-05 18:41 | 46.24944 | 6.12569 | 1368 ft | 13 kts | 226° |
| 2026-05-05 18:42 | 46.24817 | 6.12376 | 1371 ft | 56 kts | 225° |
| 2026-05-05 18:42 | 46.24380 | 6.11735 | 1373 ft | 120 kts | 225° |
| 2026-05-05 18:42 | 46.23675 | 6.10692 | 1384 ft | 168 kts | 226° |
| 2026-05-05 18:42 | 46.22859 | 6.09496 | 2067 ft | 163 kts | 225° |
| 2026-05-05 18:43 | 46.22064 | 6.08330 | 2702 ft | 164 kts | 226° |
| 2026-05-05 18:43 | 46.21271 | 6.07165 | 3282 ft | 168 kts | 226° |
| 2026-05-05 18:43 | 46.20401 | 6.05894 | 3609 ft | 189 kts | 225° |
| 2026-05-05 18:43 | 46.19423 | 6.04464 | 3876 ft | 211 kts | 225° |
| 2026-05-05 18:44 | 46.18327 | 6.02862 | 4172 ft | 236 kts | 225° |
| 2026-05-05 18:44 | 46.17110 | 6.01087 | 4574 ft | 261 kts | 225° |
| 2026-05-05 18:44 | 46.15807 | 5.99186 | 5274 ft | 271 kts | 225° |
| 2026-05-05 18:44 | 46.14487 | 5.97220 | 6145 ft | 274 kts | 226° |
| 2026-05-05 18:45 | 46.13157 | 5.95220 | 7029 ft | 278 kts | 225° |
| 2026-05-05 18:45 | 46.11611 | 5.93622 | 7833 ft | 281 kts | 201° |
| 2026-05-05 18:45 | 46.09685 | 5.93193 | 8637 ft | 285 kts | 174° |
| 2026-05-05 18:45 | 46.07795 | 5.94046 | 9430 ft | 289 kts | 148° |
| 2026-05-05 18:46 | 46.06332 | 5.96024 | 10210 ft | 293 kts | 123° |
| 2026-05-05 18:46 | 46.05604 | 5.98759 | 10949 ft | 299 kts | 100° |
| 2026-05-05 18:46 | 46.05277 | 6.01832 | 11222 ft | 322 kts | 98° |
| 2026-05-05 18:46 | 46.04976 | 6.05090 | 11757 ft | 332 kts | 97° |
| 2026-05-05 18:47 | 46.04624 | 6.08401 | 12459 ft | 337 kts | 104° |
| 2026-05-05 18:47 | 46.03817 | 6.11575 | 13162 ft | 340 kts | 118° |
| 2026-05-05 18:47 | 46.02509 | 6.14359 | 13832 ft | 342 kts | 132° |
| 2026-05-05 18:47 | 46.00739 | 6.16647 | 14488 ft | 345 kts | 145° |
| 2026-05-05 18:48 | 45.98790 | 6.18687 | 15159 ft | 348 kts | 145° |
| 2026-05-05 18:48 | 45.96830 | 6.20746 | 15803 ft | 351 kts | 145° |
| 2026-05-05 18:48 | 45.94854 | 6.22826 | 16438 ft | 353 kts | 145° |
| 2026-05-05 18:48 | 45.92864 | 6.24924 | 17062 ft | 357 kts | 145° |
| 2026-05-05 18:49 | 45.90854 | 6.27042 | 17677 ft | 360 kts | 145° |
| 2026-05-05 18:49 | 45.88829 | 6.29177 | 18269 ft | 363 kts | 145° |
| 2026-05-05 18:49 | 45.86788 | 6.31338 | 18851 ft | 366 kts | 145° |
| 2026-05-05 18:49 | 45.84739 | 6.33523 | 19410 ft | 368 kts | 145° |
| 2026-05-05 18:50 | 45.82704 | 6.35694 | 19955 ft | 372 kts | 146° |
| 2026-05-05 18:50 | 45.80620 | 6.37911 | 20506 ft | 375 kts | 146° |
| 2026-05-05 18:50 | 45.78517 | 6.40146 | 21035 ft | 378 kts | 146° |
| 2026-05-05 18:50 | 45.76399 | 6.42397 | 21556 ft | 381 kts | 146° |
| 2026-05-05 18:51 | 45.74267 | 6.44662 | 22052 ft | 383 kts | 146° |
| 2026-05-05 18:51 | 45.72116 | 6.46943 | 22536 ft | 386 kts | 146° |
| 2026-05-05 18:51 | 45.69945 | 6.49237 | 22849 ft | 389 kts | 146° |
| 2026-05-05 18:51 | 45.67787 | 6.51513 | 22920 ft | 379 kts | 146° |
| 2026-05-05 18:52 | 45.65733 | 6.53678 | 22924 ft | 366 kts | 146° |
| 2026-05-05 18:52 | 45.63698 | 6.55823 | 22931 ft | 362 kts | 146° |
| 2026-05-05 18:52 | 45.61673 | 6.57958 | 22934 ft | 361 kts | 146° |
| 2026-05-05 18:52 | 45.59652 | 6.60086 | 22934 ft | 361 kts | 146° |
| 2026-05-05 18:53 | 45.57629 | 6.62214 | 22934 ft | 361 kts | 146° |
| 2026-05-05 18:53 | 45.55604 | 6.64340 | 22934 ft | 361 kts | 147° |
| 2026-05-05 18:53 | 45.53576 | 6.66460 | 22933 ft | 361 kts | 147° |
| 2026-05-05 18:53 | 45.51548 | 6.68575 | 22932 ft | 361 kts | 147° |
| 2026-05-05 18:54 | 45.49523 | 6.70689 | 22933 ft | 361 kts | 147° |
| 2026-05-05 18:54 | 45.47522 | 6.72776 | 22935 ft | 361 kts | 147° |
| 2026-05-05 18:54 | 45.45494 | 6.74891 | 22936 ft | 361 kts | 147° |
| 2026-05-05 18:54 | 45.43465 | 6.76980 | 22932 ft | 360 kts | 147° |
| 2026-05-05 18:55 | 45.41423 | 6.79048 | 22933 ft | 360 kts | 148° |
| 2026-05-05 18:55 | 45.39376 | 6.81097 | 22936 ft | 360 kts | 148° |
| 2026-05-05 18:55 | 45.37318 | 6.83142 | 22934 ft | 361 kts | 148° |
| 2026-05-05 18:55 | 45.35265 | 6.85183 | 22933 ft | 360 kts | 148° |
| 2026-05-05 18:56 | 45.33210 | 6.87227 | 22934 ft | 360 kts | 148° |
| 2026-05-05 18:56 | 45.31157 | 6.89277 | 22937 ft | 360 kts | 148° |
| 2026-05-05 18:56 | 45.29134 | 6.91297 | 22938 ft | 361 kts | 148° |
| 2026-05-05 18:56 | 45.26976 | 6.93057 | 22937 ft | 356 kts | 159° |
| 2026-05-05 18:57 | 45.24639 | 6.94174 | 22939 ft | 353 kts | 170° |
| 2026-05-05 18:57 | 45.22217 | 6.94670 | 22938 ft | 351 kts | 176° |
| 2026-05-05 18:57 | 45.19789 | 6.95040 | 22937 ft | 351 kts | 176° |
| 2026-05-05 18:57 | 45.17362 | 6.95414 | 22937 ft | 351 kts | 176° |
| 2026-05-05 18:58 | 45.14933 | 6.95789 | 22942 ft | 352 kts | 176° |
| 2026-05-05 18:58 | 45.12500 | 6.96174 | 22944 ft | 351 kts | 176° |
| 2026-05-05 18:58 | 45.10070 | 6.96559 | 22947 ft | 351 kts | 176° |
| 2026-05-05 18:58 | 45.07671 | 6.96935 | 22950 ft | 351 kts | 176° |
| 2026-05-05 18:59 | 45.05239 | 6.97320 | 22952 ft | 352 kts | 176° |
| 2026-05-05 18:59 | 45.02807 | 6.97708 | 22954 ft | 352 kts | 176° |
| 2026-05-05 18:59 | 45.00374 | 6.98093 | 22959 ft | 352 kts | 176° |
| 2026-05-05 18:59 | 44.97945 | 6.98474 | 22958 ft | 352 kts | 176° |
| 2026-05-05 19:00 | 44.95510 | 6.98849 | 22957 ft | 352 kts | 176° |
| 2026-05-05 19:00 | 44.93078 | 6.99221 | 22957 ft | 351 kts | 176° |
| 2026-05-05 19:00 | 44.90649 | 6.99594 | 22957 ft | 351 kts | 176° |
| 2026-05-05 19:00 | 44.88252 | 6.99962 | 22957 ft | 351 kts | 176° |
| 2026-05-05 19:01 | 44.85825 | 7.00336 | 22959 ft | 351 kts | 176° |
| 2026-05-05 19:01 | 44.83395 | 7.00712 | 22959 ft | 351 kts | 176° |
| 2026-05-05 19:01 | 44.80966 | 7.01088 | 22965 ft | 351 kts | 176° |
| 2026-05-05 19:01 | 44.78538 | 7.01504 | 22957 ft | 352 kts | 174° |
| 2026-05-05 19:02 | 44.76120 | 7.02038 | 22962 ft | 352 kts | 173° |
| 2026-05-05 19:02 | 44.73705 | 7.02636 | 22958 ft | 352 kts | 172° |
| 2026-05-05 19:02 | 44.71293 | 7.03250 | 22962 ft | 353 kts | 172° |
| 2026-05-05 19:02 | 44.68909 | 7.03857 | 22957 ft | 352 kts | 172° |
| 2026-05-05 19:03 | 44.66497 | 7.04463 | 22961 ft | 352 kts | 172° |
| 2026-05-05 19:03 | 44.64080 | 7.05053 | 22963 ft | 353 kts | 173° |
| 2026-05-05 19:03 | 44.61662 | 7.05631 | 22964 ft | 353 kts | 173° |
| 2026-05-05 19:03 | 44.59243 | 7.06204 | 22966 ft | 353 kts | 173° |
| 2026-05-05 19:04 | 44.56823 | 7.06778 | 22966 ft | 353 kts | 173° |
| 2026-05-05 19:04 | 44.54405 | 7.07352 | 22967 ft | 352 kts | 173° |
| 2026-05-05 19:04 | 44.51991 | 7.07928 | 22963 ft | 352 kts | 173° |
| 2026-05-05 19:04 | 44.49611 | 7.08491 | 22965 ft | 352 kts | 173° |
| 2026-05-05 19:05 | 44.47195 | 7.09061 | 22959 ft | 352 kts | 173° |
| 2026-05-05 19:05 | 44.44779 | 7.09626 | 22957 ft | 352 kts | 173° |
| 2026-05-05 19:05 | 44.42367 | 7.10191 | 22956 ft | 352 kts | 173° |
| 2026-05-05 19:05 | 44.39959 | 7.10756 | 22954 ft | 351 kts | 173° |
| 2026-05-05 19:06 | 44.37543 | 7.11326 | 22952 ft | 351 kts | 173° |
| 2026-05-05 19:06 | 44.35138 | 7.11893 | 22952 ft | 351 kts | 173° |
| 2026-05-05 19:06 | 44.32730 | 7.12460 | 22877 ft | 349 kts | 173° |
| 2026-05-05 19:06 | 44.30389 | 7.13013 | 22628 ft | 342 kts | 173° |
| 2026-05-05 19:07 | 44.28055 | 7.13566 | 22375 ft | 339 kts | 173° |
| 2026-05-05 19:07 | 44.25746 | 7.14114 | 22354 ft | 337 kts | 173° |
| 2026-05-05 19:07 | 44.23430 | 7.14658 | 22278 ft | 337 kts | 173° |
| 2026-05-05 19:07 | 44.21147 | 7.15351 | 21891 ft | 336 kts | 164° |
| 2026-05-05 19:08 | 44.18981 | 7.16574 | 21733 ft | 337 kts | 160° |
| 2026-05-05 19:08 | 44.16822 | 7.17851 | 21553 ft | 337 kts | 160° |
| 2026-05-05 19:08 | 44.14661 | 7.19122 | 21374 ft | 336 kts | 160° |
| 2026-05-05 19:08 | 44.12509 | 7.20384 | 21161 ft | 336 kts | 160° |
| 2026-05-05 19:09 | 44.10357 | 7.21643 | 20993 ft | 335 kts | 160° |
| 2026-05-05 19:09 | 44.08237 | 7.22881 | 20804 ft | 334 kts | 160° |
| 2026-05-05 19:09 | 44.06100 | 7.24130 | 20620 ft | 333 kts | 160° |
| 2026-05-05 19:09 | 44.03968 | 7.25376 | 20431 ft | 332 kts | 160° |
| 2026-05-05 19:10 | 44.01836 | 7.26618 | 20251 ft | 331 kts | 160° |
| 2026-05-05 19:10 | 43.99719 | 7.27854 | 20065 ft | 330 kts | 160° |
| 2026-05-05 19:10 | 43.97603 | 7.29090 | 19885 ft | 330 kts | 160° |
| 2026-05-05 19:10 | 43.95491 | 7.30321 | 19699 ft | 328 kts | 160° |
| 2026-05-05 19:11 | 43.93386 | 7.31541 | 19515 ft | 327 kts | 160° |
| 2026-05-05 19:11 | 43.91311 | 7.32740 | 19323 ft | 327 kts | 160° |
| 2026-05-05 19:11 | 43.89215 | 7.33953 | 19141 ft | 326 kts | 160° |
| 2026-05-05 19:11 | 43.87125 | 7.35166 | 18956 ft | 325 kts | 160° |
| 2026-05-05 19:12 | 43.85045 | 7.36377 | 18782 ft | 324 kts | 160° |
| 2026-05-05 19:12 | 43.83024 | 7.37766 | 18598 ft | 325 kts | 150° |
| 2026-05-05 19:12 | 43.81221 | 7.39670 | 18414 ft | 327 kts | 144° |
| 2026-05-05 19:12 | 43.79459 | 7.41656 | 18234 ft | 326 kts | 144° |
| 2026-05-05 19:13 | 43.77704 | 7.43626 | 18047 ft | 325 kts | 144° |
| 2026-05-05 19:13 | 43.75949 | 7.45588 | 17867 ft | 324 kts | 144° |
| 2026-05-05 19:13 | 43.74197 | 7.47544 | 17617 ft | 323 kts | 144° |
| 2026-05-05 19:13 | 43.72479 | 7.49460 | 17371 ft | 322 kts | 144° |
| 2026-05-05 19:14 | 43.70742 | 7.51398 | 17118 ft | 321 kts | 144° |
| 2026-05-05 19:14 | 43.69008 | 7.53331 | 16864 ft | 319 kts | 144° |
| 2026-05-05 19:14 | 43.67281 | 7.55253 | 16621 ft | 318 kts | 144° |
| 2026-05-05 19:14 | 43.65600 | 7.57246 | 16381 ft | 319 kts | 135° |
| 2026-05-05 19:15 | 43.64419 | 7.59849 | 16119 ft | 323 kts | 118° |
| 2026-05-05 19:15 | 43.63420 | 7.62623 | 15866 ft | 323 kts | 119° |
| 2026-05-05 19:15 | 43.62540 | 7.65478 | 15620 ft | 323 kts | 112° |
| 2026-05-05 19:15 | 43.61969 | 7.68437 | 15369 ft | 324 kts | 104° |
| 2026-05-05 19:16 | 43.61529 | 7.71484 | 15118 ft | 323 kts | 103° |
| 2026-05-05 19:16 | 43.61102 | 7.74525 | 14869 ft | 322 kts | 103° |
| 2026-05-05 19:16 | 43.60676 | 7.77553 | 14616 ft | 321 kts | 103° |
| 2026-05-05 19:16 | 43.60250 | 7.80571 | 14370 ft | 320 kts | 103° |
| 2026-05-05 19:17 | 43.59746 | 7.83542 | 14116 ft | 317 kts | 109° |
| 2026-05-05 19:17 | 43.59106 | 7.86439 | 14048 ft | 316 kts | 110° |
| 2026-05-05 19:17 | 43.58203 | 7.89123 | 14043 ft | 311 kts | 128° |
| 2026-05-05 19:17 | 43.56705 | 7.91212 | 14043 ft | 306 kts | 149° |
| 2026-05-05 19:18 | 43.54795 | 7.92412 | 14043 ft | 300 kts | 169° |
| 2026-05-05 19:18 | 43.52737 | 7.92584 | 14045 ft | 296 kts | 190° |
| 2026-05-05 19:18 | 43.50800 | 7.91717 | 14046 ft | 293 kts | 211° |
| 2026-05-05 19:18 | 43.49249 | 7.89932 | 14044 ft | 292 kts | 232° |
| 2026-05-05 19:19 | 43.48299 | 7.87475 | 14042 ft | 293 kts | 252° |
| 2026-05-05 19:19 | 43.47809 | 7.84745 | 14044 ft | 295 kts | 255° |
| 2026-05-05 19:19 | 43.47334 | 7.81999 | 14042 ft | 295 kts | 255° |
| 2026-05-05 19:19 | 43.46860 | 7.79290 | 14044 ft | 295 kts | 255° |
| 2026-05-05 19:20 | 43.46378 | 7.76544 | 14018 ft | 295 kts | 255° |
| 2026-05-05 19:20 | 43.45899 | 7.73815 | 13696 ft | 292 kts | 255° |
| 2026-05-05 19:20 | 43.45385 | 7.71125 | 13345 ft | 290 kts | 253° |
| 2026-05-05 19:20 | 43.44857 | 7.68450 | 12986 ft | 289 kts | 253° |
| 2026-05-05 19:21 | 43.44333 | 7.65810 | 12826 ft | 281 kts | 253° |
| 2026-05-05 19:21 | 43.43826 | 7.63260 | 12701 ft | 272 kts | 253° |
| 2026-05-05 19:21 | 43.43332 | 7.60784 | 12573 ft | 264 kts | 253° |
| 2026-05-05 19:21 | 43.42856 | 7.58383 | 12443 ft | 256 kts | 253° |
| 2026-05-05 19:22 | 43.42397 | 7.56068 | 12227 ft | 253 kts | 253° |
| 2026-05-05 19:22 | 43.41936 | 7.53748 | 11947 ft | 251 kts | 253° |
| 2026-05-05 19:22 | 43.41476 | 7.51437 | 11658 ft | 250 kts | 253° |
| 2026-05-05 19:22 | 43.41016 | 7.49137 | 11342 ft | 249 kts | 253° |
| 2026-05-05 19:23 | 43.40555 | 7.46841 | 11052 ft | 249 kts | 253° |
| 2026-05-05 19:23 | 43.40095 | 7.44550 | 10750 ft | 248 kts | 253° |
| 2026-05-05 19:23 | 43.39636 | 7.42268 | 10424 ft | 248 kts | 253° |
| 2026-05-05 19:23 | 43.39175 | 7.39984 | 10111 ft | 248 kts | 253° |
| 2026-05-05 19:24 | 43.38720 | 7.37735 | 9803 ft | 247 kts | 253° |
| 2026-05-05 19:24 | 43.38260 | 7.35463 | 9470 ft | 246 kts | 253° |
| 2026-05-05 19:24 | 43.37798 | 7.33199 | 9127 ft | 246 kts | 253° |
| 2026-05-05 19:24 | 43.37336 | 7.30941 | 8782 ft | 246 kts | 253° |
| 2026-05-05 19:25 | 43.36872 | 7.28683 | 8449 ft | 245 kts | 253° |
| 2026-05-05 19:25 | 43.36409 | 7.26439 | 8123 ft | 244 kts | 253° |
| 2026-05-05 19:25 | 43.35947 | 7.24199 | 7789 ft | 243 kts | 253° |
| 2026-05-05 19:25 | 43.35488 | 7.21972 | 7465 ft | 242 kts | 253° |
| 2026-05-05 19:26 | 43.35082 | 7.19775 | 7103 ft | 242 kts | 262° |
| 2026-05-05 19:26 | 43.35252 | 7.17436 | 6451 ft | 255 kts | 290° |
| 2026-05-05 19:26 | 43.36255 | 7.15446 | 6101 ft | 255 kts | 318° |
| 2026-05-05 19:26 | 43.37798 | 7.14329 | 5673 ft | 253 kts | 347° |
| 2026-05-05 19:27 | 43.39535 | 7.14351 | 5137 ft | 251 kts | 12° |
| 2026-05-05 19:27 | 43.41230 | 7.14864 | 4749 ft | 246 kts | 12° |
| 2026-05-05 19:27 | 43.42892 | 7.15363 | 4477 ft | 243 kts | 12° |
| 2026-05-05 19:27 | 43.44532 | 7.15850 | 4213 ft | 240 kts | 12° |
| 2026-05-05 19:28 | 43.46161 | 7.16284 | 3950 ft | 236 kts | 4° |
| 2026-05-05 19:28 | 43.47759 | 7.16213 | 3649 ft | 232 kts | 355° |
| 2026-05-05 19:28 | 43.49357 | 7.16059 | 3323 ft | 227 kts | 356° |
| 2026-05-05 19:28 | 43.50903 | 7.15911 | 3079 ft | 216 kts | 356° |
| 2026-05-05 19:29 | 43.52387 | 7.15767 | 2811 ft | 212 kts | 356° |
| 2026-05-05 19:29 | 43.53812 | 7.15628 | 2502 ft | 198 kts | 356° |
| 2026-05-05 19:29 | 43.55136 | 7.15497 | 2226 ft | 183 kts | 356° |
| 2026-05-05 19:29 | 43.56363 | 7.15378 | 1981 ft | 170 kts | 356° |
| 2026-05-05 19:30 | 43.57476 | 7.15279 | 1804 ft | 153 kts | 357° |
| 2026-05-05 19:30 | 43.58512 | 7.15209 | 1568 ft | 147 kts | 359° |
| 2026-05-05 19:30 | 43.59519 | 7.15221 | 1323 ft | 143 kts | 7° |
| 2026-05-05 19:30 | 43.60485 | 7.15479 | 1165 ft | 140 kts | 18° |
| 2026-05-05 19:31 | 43.61398 | 7.15943 | 978 ft | 139 kts | 26° |
| 2026-05-05 19:31 | 43.62229 | 7.16578 | 845 ft | 138 kts | 33° |
| 2026-05-05 19:31 | 43.62988 | 7.17393 | 639 ft | 138 kts | 45° |
| 2026-05-05 19:31 | 43.63629 | 7.18357 | 462 ft | 136 kts | 44° |
| 2026-05-05 19:32 | 43.64339 | 7.19238 | 294 ft | 137 kts | 45° |
| 2026-05-05 19:32 | 43.65005 | 7.20175 | 122 ft | 137 kts | 45° |
| 2026-05-05 19:32 | 43.65669 | 7.21069 | 29 ft | 123 kts | 45° |
| 2026-05-05 19:32 | 43.66076 | 7.21635 | 20 ft | 43 kts | 44° |
| 2026-05-05 19:33 | 43.66203 | 7.21749 | 21 ft | 15 kts | 350° |
| 2026-05-05 19:33 | 43.66269 | 7.21679 | 21 ft | 8 kts | 316° |
| 2026-05-05 19:33 | 43.66301 | 7.21634 | 21 ft | 6 kts | 310° |
| 2026-05-05 19:33 | 43.66301 | 7.21600 | 23 ft | 3 kts | 227° |
| 2026-05-05 19:34 | 43.66274 | 7.21571 | 21 ft | 9 kts | 216° |
| 2026-05-05 19:34 | 43.66202 | 7.21487 | 21 ft | 17 kts | 224° |
| 2026-05-05 19:34 | 43.66113 | 7.21355 | 22 ft | 20 kts | 227° |
| 2026-05-05 19:35 | 43.65907 | 7.21078 | 21 ft | 19 kts | 222° |
| 2026-05-05 19:35 | 43.65818 | 7.20959 | 21 ft | 17 kts | 225° |
| 2026-05-05 19:35 | 43.65754 | 7.20870 | 22 ft | 12 kts | 225° |
| 2026-05-05 19:35 | 43.65692 | 7.20783 | 22 ft | 13 kts | 225° |
| 2026-05-05 19:36 | 43.65639 | 7.20703 | 22 ft | 8 kts | 244° |
| 2026-05-05 19:36 | 43.65654 | 7.20638 | 21 ft | 7 kts | 305° |
| 2026-05-05 19:36 | 43.65685 | 7.20588 | 22 ft | 6 kts | 300° |
| 2026-05-05 19:36 | 43.65672 | 7.20525 | 21 ft | 6 kts | 246° |
| 2026-05-05 19:37 | 43.65655 | 7.20480 | 21 ft | 5 kts | 258° |
| 2026-05-05 19:37 | 43.65669 | 7.20437 | 23 ft | 6 kts | 315° |
| 2026-05-05 19:37 | 43.65688 | 7.20412 | 21 ft | 1 kts | 317° |
| 2026-05-05 19:37 | 43.65694 | 7.20403 | 22 ft | 4 kts | 316° |
| 2026-05-05 19:38 | 43.65700 | 7.20395 | 23 ft | 0 kts | 315° |